createdAt,value
2022-08-14T00:01:30.280Z,23.36
2022-08-14T00:04:35.762Z,23.36
2022-08-14T00:07:21.716Z,23.36
2022-08-14T00:10:49.763Z,23.38
2022-08-14T00:13:18.265Z,23.46
2022-08-14T00:16:04.284Z,23.48
2022-08-14T00:19:06.410Z,23.50
2022-08-14T00:21:58.566Z,23.50
2022-08-14T00:24:45.063Z,23.46
2022-08-14T00:27:30.165Z,23.55
2022-08-14T00:30:23.229Z,23.59
2022-08-14T00:33:16.161Z,23.57
2022-08-14T00:36:37.543Z,23.55
2022-08-14T00:39:09.443Z,23.51
2022-08-14T00:41:55.743Z,23.43
2022-08-14T00:44:41.037Z,23.40
2022-08-14T00:47:28.397Z,23.35
2022-08-14T00:50:18.518Z,23.39
2022-08-14T00:53:10.554Z,23.42
2022-08-14T00:55:57.574Z,23.42
2022-08-14T00:58:44.939Z,23.36
2022-08-14T01:01:33.527Z,23.27
2022-08-14T01:04:51.912Z,23.30
2022-08-14T01:07:27.250Z,23.23
2022-08-14T01:10:13.101Z,23.17
2022-08-14T01:13:02.007Z,23.13
2022-08-14T01:15:57.690Z,23.09
2022-08-14T01:19:06.702Z,23.10
2022-08-14T01:21:53.878Z,23.05
2022-08-14T01:24:38.991Z,23.04
2022-08-14T01:27:28.555Z,23.02
2022-08-14T01:30:16.972Z,23.09
2022-08-14T01:33:06.767Z,23.18
2022-08-14T01:36:03.940Z,23.21
2022-08-14T01:38:57.855Z,23.20
2022-08-14T01:41:58.170Z,23.18
2022-08-14T01:44:44.024Z,23.18
2022-08-14T01:47:37.456Z,23.15
2022-08-14T01:50:26.674Z,23.21
2022-08-14T01:53:12.558Z,23.27
2022-08-14T01:56:05.287Z,23.25
2022-08-14T01:58:58.349Z,23.27
2022-08-14T02:01:58.059Z,23.26
2022-08-14T02:04:56.883Z,23.23
2022-08-14T02:07:55.614Z,23.27
2022-08-14T02:10:46.754Z,23.20
2022-08-14T02:13:33.943Z,23.23
2022-08-14T02:16:26.409Z,23.20
2022-08-14T02:19:17.380Z,23.15
2022-08-14T02:22:03.487Z,23.11
2022-08-14T02:24:48.677Z,23.13
2022-08-14T02:28:25.301Z,23.15
2022-08-14T02:30:41.655Z,23.12
2022-08-14T02:33:29.431Z,23.08
2022-08-14T02:37:05.130Z,23.11
2022-08-14T02:39:24.142Z,23.10
2022-08-14T02:42:23.532Z,23.13
2022-08-14T02:45:23.750Z,23.12
2022-08-14T02:48:10.563Z,23.07
2022-08-14T02:51:15.464Z,23.07
2022-08-14T02:54:01.908Z,23.08
2022-08-14T02:57:15.834Z,23.11
2022-08-14T02:59:57.359Z,23.11
2022-08-14T03:02:55.909Z,23.12
2022-08-14T03:05:44.298Z,23.11
2022-08-14T03:08:32.066Z,23.08
2022-08-14T03:11:17.251Z,23.04
2022-08-14T03:14:02.551Z,23.01
2022-08-14T03:16:49.522Z,23.01
2022-08-14T03:19:36.504Z,22.99
2022-08-14T03:22:22.097Z,23.00
2022-08-14T03:25:07.971Z,23.03
2022-08-14T03:27:58.497Z,22.99
2022-08-14T03:30:44.383Z,22.97
2022-08-14T03:33:38.354Z,22.93
2022-08-14T03:37:38.386Z,22.96
2022-08-14T03:39:31.515Z,22.92
2022-08-14T03:42:19.695Z,22.90
2022-08-14T03:45:27.139Z,22.85
2022-08-14T03:48:30.376Z,22.83
2022-08-14T03:51:16.931Z,22.80
2022-08-14T03:54:08.195Z,22.81
2022-08-14T03:57:02.806Z,22.80
2022-08-14T03:59:48.565Z,22.81
2022-08-14T04:02:37.617Z,22.84
2022-08-14T04:05:37.936Z,22.84
2022-08-14T04:08:31.154Z,22.91
2022-08-14T04:11:19.439Z,22.86
2022-08-14T04:14:06.403Z,22.90
2022-08-14T04:16:52.400Z,22.96
2022-08-14T04:19:37.851Z,22.95
2022-08-14T04:22:23.623Z,22.90
2022-08-14T04:25:09.997Z,22.86
2022-08-14T04:28:02.385Z,22.87
2022-08-14T04:30:49.129Z,22.85
2022-08-14T04:33:36.212Z,22.85
2022-08-14T04:36:23.930Z,22.82
2022-08-14T04:39:27.909Z,22.82
2022-08-14T04:42:32.969Z,22.83
2022-08-14T04:45:20.359Z,22.85
2022-08-14T04:48:13.149Z,22.91
2022-08-14T04:50:58.521Z,22.93
2022-08-14T04:53:47.118Z,22.99
2022-08-14T04:56:34.700Z,23.03
2022-08-14T04:59:20.097Z,23.11
2022-08-14T05:02:07.394Z,23.12
2022-08-14T05:04:56.767Z,23.16
2022-08-14T05:07:54.719Z,23.23
2022-08-14T05:10:53.260Z,23.29
2022-08-14T05:14:08.241Z,23.37
2022-08-14T05:16:46.566Z,23.44
2022-08-14T05:19:33.063Z,23.49
2022-08-14T05:22:19.371Z,23.51
2022-08-14T05:25:05.071Z,23.57
2022-08-14T05:27:50.773Z,23.63
2022-08-14T05:30:44.478Z,23.67
2022-08-14T05:33:32.807Z,23.72
2022-08-14T05:36:18.035Z,23.85
2022-08-14T05:39:07.316Z,24.01
2022-08-14T05:41:54.431Z,24.15
2022-08-14T05:44:39.718Z,24.25
2022-08-14T05:47:28.936Z,24.29
2022-08-14T05:50:24.203Z,24.39
2022-08-14T05:53:09.553Z,24.50
2022-08-14T05:55:55.682Z,24.62
2022-08-14T05:58:41.657Z,24.69
2022-08-14T06:01:27.364Z,24.79
2022-08-14T06:04:17.485Z,24.90
2022-08-14T06:07:02.496Z,24.99
2022-08-14T06:09:50.947Z,24.95
2022-08-14T06:12:55.752Z,24.90
2022-08-14T06:15:43.061Z,25.09
2022-08-14T06:18:32.208Z,25.21
2022-08-14T06:21:17.630Z,25.20
2022-08-14T06:24:03.033Z,24.95
2022-08-14T06:26:54.137Z,24.96
2022-08-14T06:29:41.575Z,24.82
2022-08-14T06:32:37.388Z,24.95
2022-08-14T06:35:32.394Z,24.85
2022-08-14T06:38:20.415Z,25.06
2022-08-14T06:41:10.870Z,24.80
2022-08-14T06:43:56.044Z,24.92
2022-08-14T06:46:42.251Z,25.09
2022-08-14T06:49:43.376Z,25.22
2022-08-14T06:52:33.906Z,25.37
2022-08-14T06:55:24.029Z,25.33
2022-08-14T06:58:28.712Z,25.27
2022-08-14T07:01:32.717Z,25.39
2022-08-14T07:04:36.756Z,25.34
2022-08-14T07:07:22.533Z,25.22
2022-08-14T07:10:16.854Z,25.26
2022-08-14T07:13:04.197Z,25.23
2022-08-14T07:15:55.258Z,25.27
2022-08-14T07:18:41.547Z,25.50
2022-08-14T07:21:27.955Z,25.64
2022-08-14T07:24:21.522Z,25.74
2022-08-14T07:27:07.600Z,25.56
2022-08-14T07:29:55.234Z,25.31
2022-08-14T07:32:40.699Z,25.40
2022-08-14T07:35:37.358Z,25.46
2022-08-14T07:38:37.515Z,25.55
2022-08-14T07:41:23.639Z,25.77
2022-08-14T07:44:29.022Z,25.61
2022-08-14T07:47:18.873Z,25.83
2022-08-14T07:50:11.397Z,26.09
2022-08-14T07:52:59.627Z,26.02
2022-08-14T07:55:46.599Z,26.23
2022-08-14T07:58:51.669Z,26.36
2022-08-14T08:01:37.960Z,26.10
2022-08-14T08:04:39.490Z,26.21
2022-08-14T08:07:31.384Z,26.38
2022-08-14T08:10:57.073Z,26.68
2022-08-14T08:13:42.853Z,26.98
2022-08-14T08:16:36.555Z,26.90
2022-08-14T08:19:22.418Z,26.90
2022-08-14T08:22:08.736Z,27.03
2022-08-14T08:25:08.524Z,27.12
2022-08-14T08:28:08.452Z,27.35
2022-08-14T08:30:56.726Z,27.62
2022-08-14T08:33:43.409Z,27.78
2022-08-14T08:36:40.247Z,27.62
2022-08-14T08:39:31.042Z,27.58
2022-08-14T08:42:41.202Z,27.99
2022-08-14T08:45:27.754Z,27.83
2022-08-14T08:48:18.075Z,27.84
2022-08-14T08:51:06.516Z,27.95
2022-08-14T08:54:03.406Z,27.79
2022-08-14T08:56:52.417Z,27.96
2022-08-14T08:59:37.737Z,28.14
2022-08-14T09:02:27.756Z,28.11
2022-08-14T09:05:13.109Z,28.06
2022-08-14T09:08:15.012Z,27.87
2022-08-14T09:11:18.906Z,28.01
2022-08-14T09:14:05.532Z,27.94
2022-08-14T09:16:51.456Z,28.18
2022-08-14T09:19:37.151Z,28.23
2022-08-14T09:22:34.811Z,28.09
2022-08-14T09:25:59.690Z,28.13
2022-08-14T09:28:34.475Z,28.29
2022-08-14T09:31:21.938Z,28.07
2022-08-14T09:34:27.974Z,28.36
2022-08-14T09:37:23.049Z,28.55
2022-08-14T09:40:21.849Z,28.45
2022-08-14T09:43:32.960Z,28.36
2022-08-14T09:46:21.174Z,28.36
2022-08-14T09:49:16.340Z,28.20
2022-08-14T09:52:33.161Z,28.29
2022-08-14T09:55:21.596Z,28.19
2022-08-14T09:58:14.872Z,28.50
2022-08-14T10:01:14.560Z,28.46
2022-08-14T10:04:00.295Z,28.67
2022-08-14T10:06:45.658Z,28.73
2022-08-14T10:09:34.801Z,28.58
2022-08-14T10:12:28.732Z,28.74
2022-08-14T10:15:19.647Z,28.90
2022-08-14T10:18:09.586Z,28.87
2022-08-14T10:21:09.723Z,28.93
2022-08-14T10:23:54.956Z,28.78
2022-08-14T10:26:43.769Z,28.68
2022-08-14T10:29:40.958Z,28.49
2022-08-14T10:32:39.940Z,28.17
2022-08-14T10:36:02.787Z,28.36
2022-08-14T10:38:58.114Z,28.57
2022-08-14T10:41:46.589Z,28.90
2022-08-14T10:44:38.618Z,29.21
2022-08-14T10:47:40.419Z,29.08
2022-08-14T10:50:46.309Z,28.95
2022-08-14T10:53:35.138Z,29.08
2022-08-14T10:56:35.234Z,29.07
2022-08-14T10:59:23.365Z,29.12
2022-08-14T11:02:54.679Z,29.26
2022-08-14T11:06:00.997Z,29.14
2022-08-14T11:08:59.307Z,29.09
2022-08-14T11:11:44.534Z,29.21
2022-08-14T11:14:29.848Z,29.21
2022-08-14T11:17:15.692Z,29.38
2022-08-14T11:20:14.039Z,29.35
2022-08-14T11:23:02.604Z,29.43
2022-08-14T11:25:53.351Z,29.30
2022-08-14T11:28:47.150Z,29.33
2022-08-14T11:31:38.964Z,29.56
2022-08-14T11:34:31.961Z,29.38
2022-08-14T11:37:31.622Z,29.55
2022-08-14T11:40:30.871Z,29.74
2022-08-14T11:43:22.644Z,29.57
2022-08-14T11:46:17.756Z,29.51
2022-08-14T11:49:34.882Z,29.49
2022-08-14T11:52:21.701Z,29.64
2022-08-14T11:55:13.542Z,29.30
2022-08-14T11:58:05.355Z,29.37
2022-08-14T12:00:54.295Z,29.56
2022-08-14T12:03:52.015Z,29.46
2022-08-14T12:06:52.539Z,29.43
2022-08-14T12:09:43.006Z,29.47
2022-08-14T12:12:35.500Z,29.60
2022-08-14T12:15:36.123Z,29.72
2022-08-14T12:18:39.559Z,29.67
2022-08-14T12:21:25.950Z,29.86
2022-08-14T12:24:36.807Z,29.87
2022-08-14T12:27:25.278Z,29.78
2022-08-14T12:30:14.702Z,29.91
2022-08-14T12:33:21.112Z,29.53
2022-08-14T12:36:20.917Z,29.38
2022-08-14T12:39:26.498Z,29.46
2022-08-14T12:42:27.230Z,29.63
2022-08-14T12:45:17.588Z,29.71
2022-08-14T12:48:21.802Z,29.74
2022-08-14T12:51:25.191Z,30.00
2022-08-14T12:54:28.003Z,30.08
2022-08-14T12:57:19.912Z,29.98
2022-08-14T13:00:22.453Z,30.03
2022-08-14T13:03:09.597Z,29.82
2022-08-14T13:05:55.676Z,29.72
2022-08-14T13:08:52.714Z,29.88
2022-08-14T13:11:58.985Z,29.91
2022-08-14T13:15:01.133Z,29.77
2022-08-14T13:17:52.076Z,29.69
2022-08-14T13:20:38.809Z,29.75
2022-08-14T13:23:36.415Z,29.92
2022-08-14T13:26:29.891Z,29.86
2022-08-14T13:29:23.605Z,29.76
2022-08-14T13:32:11.607Z,29.92
2022-08-14T13:34:58.443Z,30.06
2022-08-14T13:37:49.865Z,30.20
2022-08-14T13:40:38.774Z,30.13
2022-08-14T13:43:31.610Z,30.21
2022-08-14T13:46:26.277Z,30.16
2022-08-14T13:49:13.506Z,30.04
2022-08-14T13:52:04.206Z,30.06
2022-08-14T13:54:55.534Z,30.00
2022-08-14T13:57:49.376Z,30.08
2022-08-14T14:00:51.736Z,30.12
2022-08-14T14:03:44.818Z,30.13
2022-08-14T14:06:32.798Z,30.00
2022-08-14T14:09:32.567Z,29.96
2022-08-14T14:12:41.235Z,29.79
2022-08-14T14:15:28.605Z,29.79
2022-08-14T14:18:33.843Z,29.86
2022-08-14T14:21:22.080Z,29.74
2022-08-14T14:24:07.813Z,29.93
2022-08-14T14:27:30.130Z,30.04
2022-08-14T14:30:52.627Z,30.23
2022-08-14T14:33:42.307Z,30.32
2022-08-14T14:36:26.397Z,30.23
2022-08-14T14:39:21.516Z,30.11
2022-08-14T14:42:13.702Z,30.11
2022-08-14T14:45:14.465Z,30.06
2022-08-14T14:48:01.907Z,30.21
2022-08-14T14:50:52.951Z,30.15
2022-08-14T14:53:39.900Z,30.17
2022-08-14T14:56:49.493Z,30.03
2022-08-14T14:59:33.279Z,30.12
2022-08-14T15:02:33.659Z,29.84
2022-08-14T15:05:21.900Z,29.84
2022-08-14T15:08:07.247Z,30.01
2022-08-14T15:10:53.986Z,30.17
2022-08-14T15:13:43.068Z,30.21
2022-08-14T15:16:38.675Z,30.19
2022-08-14T15:19:24.040Z,30.21
2022-08-14T15:22:10.534Z,30.29
2022-08-14T15:24:56.866Z,30.18
2022-08-14T15:27:44.135Z,30.35
2022-08-14T15:30:32.569Z,30.44
2022-08-14T15:34:01.223Z,30.29
2022-08-14T15:36:45.341Z,29.98
2022-08-14T15:39:35.699Z,29.89
2022-08-14T15:42:24.126Z,29.96
2022-08-14T15:45:17.299Z,29.97
2022-08-14T15:48:03.120Z,29.92
2022-08-14T15:50:50.844Z,29.77
2022-08-14T15:53:37.399Z,29.98
2022-08-14T15:56:43.176Z,30.06
2022-08-14T15:59:48.833Z,29.77
2022-08-14T16:02:34.906Z,29.89
2022-08-14T16:05:25.456Z,29.93
2022-08-14T16:08:26.713Z,29.79
2022-08-14T16:11:16.215Z,29.82
2022-08-14T16:14:02.235Z,29.42
2022-08-14T16:16:59.837Z,29.71
2022-08-14T16:19:47.477Z,30.05
2022-08-14T16:22:58.321Z,29.79
2022-08-14T16:25:43.866Z,29.78
2022-08-14T16:28:33.354Z,29.61
2022-08-14T16:31:21.055Z,29.64
2022-08-14T16:34:44.017Z,29.38
2022-08-14T16:37:19.024Z,29.23
2022-08-14T16:40:05.319Z,29.27
2022-08-14T16:43:04.204Z,29.51
2022-08-14T16:45:57.988Z,29.52
2022-08-14T16:48:55.141Z,29.43
2022-08-14T16:51:46.570Z,29.35
2022-08-14T16:54:44.588Z,29.26
2022-08-14T16:57:31.567Z,29.03
2022-08-14T17:00:44.207Z,28.98
2022-08-14T17:03:30.756Z,28.85
2022-08-14T17:06:50.715Z,29.13
2022-08-14T17:09:43.329Z,29.20
2022-08-14T17:12:34.992Z,29.31
2022-08-14T17:15:24.853Z,29.35
2022-08-14T17:18:15.068Z,29.39
2022-08-14T17:21:31.792Z,29.06
2022-08-14T17:24:56.308Z,29.15
2022-08-14T17:27:24.580Z,28.98
2022-08-14T17:30:31.786Z,28.84
2022-08-14T17:33:23.191Z,28.78
2022-08-14T17:36:21.020Z,28.58
2022-08-14T17:39:11.830Z,28.60
2022-08-14T17:42:03.119Z,28.65
2022-08-14T17:44:48.850Z,28.58
2022-08-14T17:47:37.506Z,28.37
2022-08-14T17:50:58.329Z,28.33
2022-08-14T17:53:53.637Z,28.45
2022-08-14T17:56:49.597Z,28.26
2022-08-14T17:59:39.388Z,28.32
2022-08-14T18:02:31.101Z,28.44
2022-08-14T18:05:17.729Z,28.50
2022-08-14T18:08:32.358Z,28.46
2022-08-14T18:11:21.786Z,28.23
2022-08-14T18:14:09.765Z,28.20
2022-08-14T18:17:16.033Z,28.07
2022-08-14T18:21:24.256Z,28.00
2022-08-14T18:23:10.518Z,27.86
2022-08-14T18:25:59.940Z,27.78
2022-08-14T18:28:51.287Z,27.70
2022-08-14T18:31:42.353Z,27.66
2022-08-14T18:34:38.214Z,27.81
2022-08-14T18:37:37.301Z,27.82
2022-08-14T18:40:22.960Z,27.78
2022-08-14T18:43:45.157Z,27.63
2022-08-14T18:47:10.028Z,27.72
2022-08-14T18:50:27.583Z,27.72
2022-08-14T18:53:16.919Z,27.77
2022-08-14T18:56:09.560Z,27.76
2022-08-14T18:58:57.087Z,27.83
2022-08-14T19:01:44.300Z,27.78
2022-08-14T19:04:42.596Z,27.77
2022-08-14T19:07:29.064Z,27.73
2022-08-14T19:10:31.875Z,27.71
2022-08-14T19:13:27.755Z,27.65
2022-08-14T19:16:42.932Z,27.57
2022-08-14T19:19:39.033Z,27.51
2022-08-14T19:22:30.661Z,27.47
2022-08-14T19:25:52.945Z,27.40
2022-08-14T19:28:50.348Z,27.34
2022-08-14T19:31:37.021Z,27.29
2022-08-14T19:34:52.116Z,27.27
2022-08-14T19:38:00.643Z,27.24
2022-08-14T19:40:49.661Z,27.19
2022-08-14T19:43:55.276Z,27.15
2022-08-14T19:47:00.478Z,27.12
2022-08-14T19:50:08.501Z,27.12
2022-08-14T19:53:11.094Z,27.10
2022-08-14T19:56:02.240Z,27.06
2022-08-14T19:58:55.010Z,27.04
2022-08-14T20:01:42.901Z,27.01
2022-08-14T20:04:47.211Z,26.98
2022-08-14T20:08:09.149Z,26.98
2022-08-14T20:11:08.490Z,26.95
2022-08-14T20:13:47.421Z,26.91
2022-08-14T20:16:37.972Z,26.85
2022-08-14T20:19:29.250Z,26.79
2022-08-14T20:22:37.218Z,26.72
2022-08-14T20:25:22.808Z,26.66
2022-08-14T20:28:28.819Z,26.61
2022-08-14T20:31:19.315Z,26.57
2022-08-14T20:34:24.456Z,26.51
2022-08-14T20:37:22.417Z,26.47
2022-08-14T20:40:23.951Z,26.44
2022-08-14T20:43:36.445Z,26.40
2022-08-14T20:46:29.669Z,26.36
2022-08-14T20:49:19.179Z,26.33
2022-08-14T20:52:19.128Z,26.32
2022-08-14T20:56:00.504Z,26.30
2022-08-14T20:58:50.176Z,26.31
2022-08-14T21:01:44.972Z,26.31
2022-08-14T21:04:34.269Z,26.29
2022-08-14T21:07:33.552Z,26.28
2022-08-14T21:10:35.344Z,26.25
2022-08-14T21:13:27.772Z,26.22
2022-08-14T21:16:35.759Z,26.23
2022-08-14T21:19:26.151Z,26.24
2022-08-14T21:22:12.358Z,26.28
2022-08-14T21:25:01.709Z,26.26
2022-08-14T21:27:56.792Z,26.26
2022-08-14T21:30:51.229Z,26.24
2022-08-14T21:33:39.939Z,26.21
2022-08-14T21:36:30.813Z,26.16
2022-08-14T21:39:19.825Z,26.18
2022-08-14T21:42:06.176Z,26.17
2022-08-14T21:44:52.592Z,26.17
2022-08-14T21:47:40.118Z,26.13
2022-08-14T21:50:40.088Z,26.10
2022-08-14T21:53:34.273Z,26.07
2022-08-14T21:56:19.495Z,26.03
2022-08-14T21:59:17.500Z,26.00
2022-08-14T22:02:05.561Z,25.89
2022-08-14T22:04:52.607Z,25.80
2022-08-14T22:07:42.333Z,25.82
2022-08-14T22:10:28.953Z,25.86
2022-08-14T22:13:20.526Z,25.87
2022-08-14T22:16:08.405Z,25.83
2022-08-14T22:19:17.045Z,25.82
2022-08-14T22:22:04.776Z,25.79
2022-08-14T22:24:53.261Z,25.75
2022-08-14T22:27:56.331Z,25.73
2022-08-14T22:30:44.771Z,25.81
2022-08-14T22:33:32.255Z,25.76
2022-08-14T22:36:41.971Z,25.73
2022-08-14T22:40:55.163Z,25.63
2022-08-14T22:42:37.156Z,25.55
2022-08-14T22:45:22.721Z,25.47
2022-08-14T22:48:11.100Z,25.44
2022-08-14T22:50:57.101Z,25.39
2022-08-14T22:53:44.235Z,25.35
2022-08-14T22:56:30.477Z,25.33
2022-08-14T22:59:16.460Z,25.37
2022-08-14T23:02:12.687Z,25.33
2022-08-14T23:05:03.320Z,25.36
2022-08-14T23:08:58.490Z,25.29
2022-08-14T23:10:55.386Z,25.23
2022-08-14T23:13:43.545Z,25.26
2022-08-14T23:16:31.370Z,25.21
2022-08-14T23:19:17.252Z,25.18
2022-08-14T23:22:06.585Z,25.25
2022-08-14T23:24:52.839Z,25.30
2022-08-14T23:28:03.679Z,25.18
2022-08-14T23:30:49.181Z,25.15
2022-08-14T23:33:34.834Z,25.13
2022-08-14T23:36:31.719Z,25.09
2022-08-14T23:39:19.275Z,25.02
2022-08-14T23:42:08.519Z,25.01
2022-08-14T23:44:53.827Z,24.97
2022-08-14T23:47:51.877Z,25.03
2022-08-14T23:50:38.832Z,25.07
2022-08-14T23:53:47.643Z,25.07
2022-08-14T23:56:33.852Z,24.96
2022-08-14T23:59:19.426Z,24.88
